Benutzungsordnung PDF Drucken E-Mail

 

 

Die Benutzungsordnung für den Verkehrslandeplatz Uetersen/Heist wurde am 01.01./10.01.2006 neu gefasst und von der zuständigen Landesbehörde in Schleswig-Holstein genehmigt und in Kraft gesetzt. Die Benutzungsordnung regelt die Rechte und Pflichten zwischen den Benutzern und dem Halter des Verkehrslandeplatzes. Die öffentlichen Vorschriften für die Benutzung des Verkehrslandeplatzes bleiben unberührt.

Für Fahrzeuge gilt die Straßenbenutzungsordnung.

 

Sie können die Benutzungsordnung hier als PDF-Datei herunterladen.

 

 

(Zum Öffnen benötigen Sie den Adobe Acrobat Reader, den Sie kostenfrei unter http://get.adobe.com/de/reader/ herunterladen können)

 

Zufallsbild

Aktuelle Termine

Mo Di Mi Do Fr Sa So
31 1 2 3 4 5 6
7 8 9 10 11 12 13
14 15 16 17 18 19 20
21 22 23 24 25 26 27
28 29 30 31 1 2 3

Pilotenwetter

[source: ADDS]
METAR
EDDH 240820Z 23008KT 9999 SCT008 BKN010 17/15 Q1012 BECMG 4000 BR BKN004 =
TAF
TAF EDDH 240500Z 2406/2512 15007KT CAVOK BECMG 2406/2409 25010KT TEMPO 2406/2409 SHRA SCT040CB PROB30 TEMPO 2406/2409 25015G25KT 2500 TSRA BKN020CB PROB30 TEMPO 2409/2411 3000 BR BKN007 PROB30 TEMPO 2412/2416 27015G25KT BECMG 2418/2421 24005KT TEMPO 2502/2506 3000 BR =